Airfield :
LOGIN :

Register | Disclaimer

   EN    FR    IT 

 










Legend :    VFR   Marginal VFR   IFR   Intensive IFR   Very Intensive IFR
Visi :
Ceiling :
>= 8 km
>= 3000ft
5 to 8 km
1000 to 3000 ft
1500m to 5 km
500 to 1000 ft
800 to 1500m
200 to 500 ft
< 800m
< 200 ft
Symbols :   Thunderstorms  Fog  Heavy snow  Heavy precipitations  Wind > 20 kt
SIGMETs :     Misc.  Thunderstorms  Icing  Turbulence  Mountain Waves  Volcanic Ashes







- Airport Elevation : 230 ft


ETHB - Buckeburg Army

CURRENT METAR :
  • 181320Z 28013KT 9999 VCSH FEW012 FEW017CB 06/03 Q1015 RETS BLU+BLU TEMPO GRN

EXPIRED METARs :
  • 181308Z 31017KT 9999 VCSH FEW012 FEW017CB SCT025 05/02 Q1015 RETS BLU+BLU TEMPO GRN
  • 181301Z 31019KT 5000 -SHGSRA FEW012 FEW015CB BKN025 06/02 Q1015 RETS WHT BLU TEMPO GRN
  • 181251Z 27021KT 9999 -SHRA FEW012 SCT015CB BKN025 07/02 Q1014 RETS BLU BLU TEMPO GRN
  • 181238Z 25020KT 9999 VCTS VCSH FEW012 SCT015CB BKN035 08/02 Q1014 BLU BLU TEMPO GRN
  • 181220Z 26014KT 9999 FEW012 FEW015CB BKN035 08/03 Q1014 RESHGS BLU BLU TEMPO GRN
  • 181147Z 29011KT 9999 SCT025 06/02 Q1014 RESHGS BLU+BLU TEMPO GRN
  • 181124Z 33020G30KT 9999 -SHRA SCT010CB BKN020 04/01 Q1014 RESHGS WHT BLU TEMPO GRN
  • 181120Z 32021KT 2500 SHRAGS BKN010CB 05/00 Q1014 YLO BLU TEMPO GRN

TAF TAF ETHB
Valid from the 18 at 12:00 until the 18 at 21:00 UTC


181105Z 1812/1821 25015G25KT 9999 NSW SCT020 BKN035
TEMPO 1812/1818 27018G30KT 4000 SHRA SCT008 BKN012CB
PROB30 1812/1816 VRB20G35KT 2000 TSGS BKN007 BKN012CB
No reported NOTAMs for that airfield.



MET'MAP, your aeronautical weather chart ! - Copyright ORBIFLY December 2007 - Disclaimer

ORBIFLY MET'MAP TEAM :

Programming & Development : Alexandra Zaïnal
Concept & Development : Baudouin d'Aumeries
Co-Development & Prog : Marc-Olivier Méhu
Technical & hardware support : Manuel Goepfert

Contact : metmap@orbifly.com




SOURCES & CREDITS :

   NOAA